sensor_id;sensor_type;location;lat;lon;timestamp;P1;durP1;ratioP1;P2;durP2;ratioP2
62030;SDS011;62035;52.094;5.112;2023-02-25T00:01:16;10.98;;;1.75;;
62030;SDS011;62035;52.094;5.112;2023-02-25T00:03:45;13.05;;;2.10;;
62030;SDS011;62035;52.094;5.112;2023-02-25T00:06:13;9.35;;;1.58;;
62030;SDS011;62035;52.094;5.112;2023-02-25T00:08:41;9.18;;;1.60;;
62030;SDS011;62035;52.094;5.112;2023-02-25T00:11:11;5.57;;;1.67;;
62030;SDS011;62035;52.094;5.112;2023-02-25T00:13:42;18.58;;;2.33;;
62030;SDS011;62035;52.094;5.112;2023-02-25T00:16:11;12.45;;;2.00;;
62030;SDS011;62035;52.094;5.112;2023-02-25T00:18:40;8.45;;;1.60;;
62030;SDS011;62035;52.094;5.112;2023-02-25T00:21:12;11.70;;;1.83;;
62030;SDS011;62035;52.094;5.112;2023-02-25T00:23:43;7.50;;;2.03;;
62030;SDS011;62035;52.094;5.112;2023-02-25T00:26:14;12.10;;;1.90;;
62030;SDS011;62035;52.094;5.112;2023-02-25T00:28:44;12.90;;;1.70;;
62030;SDS011;62035;52.094;5.112;2023-02-25T00:31:17;9.40;;;1.92;;
62030;SDS011;62035;52.094;5.112;2023-02-25T00:33:47;10.02;;;1.90;;
62030;SDS011;62035;52.094;5.112;2023-02-25T00:36:17;10.60;;;1.67;;
62030;SDS011;62035;52.094;5.112;2023-02-25T00:38:48;14.63;;;2.25;;
62030;SDS011;62035;52.094;5.112;2023-02-25T00:41:19;5.00;;;1.70;;
62030;SDS011;62035;52.094;5.112;2023-02-25T00:43:50;12.48;;;1.67;;
62030;SDS011;62035;52.094;5.112;2023-02-25T00:46:20;9.63;;;2.10;;
62030;SDS011;62035;52.094;5.112;2023-02-25T00:48:48;11.43;;;2.72;;
62030;SDS011;62035;52.094;5.112;2023-02-25T00:51:18;7.93;;;1.73;;
62030;SDS011;62035;52.094;5.112;2023-02-25T00:53:47;12.55;;;2.53;;
62030;SDS011;62035;52.094;5.112;2023-02-25T00:56:15;5.72;;;1.52;;
62030;SDS011;62035;52.094;5.112;2023-02-25T00:58:46;9.43;;;1.65;;
62030;SDS011;62035;52.094;5.112;2023-02-25T01:01:17;10.35;;;2.10;;
62030;SDS011;62035;52.094;5.112;2023-02-25T01:03:48;10.20;;;1.67;;
62030;SDS011;62035;52.094;5.112;2023-02-25T01:06:18;9.70;;;1.75;;
62030;SDS011;62035;52.094;5.112;2023-02-25T01:08:46;12.40;;;2.92;;
62030;SDS011;62035;52.094;5.112;2023-02-25T01:11:14;7.40;;;1.85;;
62030;SDS011;62035;52.094;5.112;2023-02-25T01:13:46;13.57;;;2.22;;
62030;SDS011;62035;52.094;5.112;2023-02-25T01:16:16;19.77;;;2.67;;
62030;SDS011;62035;52.094;5.112;2023-02-25T01:18:50;16.88;;;2.40;;
62030;SDS011;62035;52.094;5.112;2023-02-25T01:21:20;14.60;;;2.42;;
62030;SDS011;62035;52.094;5.112;2023-02-25T01:23:53;15.20;;;2.65;;
62030;SDS011;62035;52.094;5.112;2023-02-25T01:26:26;20.98;;;2.88;;
62030;SDS011;62035;52.094;5.112;2023-02-25T01:28:55;19.83;;;2.72;;
62030;SDS011;62035;52.094;5.112;2023-02-25T01:31:23;19.20;;;2.25;;
62030;SDS011;62035;52.094;5.112;2023-02-25T01:33:54;15.18;;;2.33;;
62030;SDS011;62035;52.094;5.112;2023-02-25T01:36:24;15.98;;;2.90;;
62030;SDS011;62035;52.094;5.112;2023-02-25T01:38:52;13.00;;;2.97;;
62030;SDS011;62035;52.094;5.112;2023-02-25T01:41:21;16.42;;;2.60;;
62030;SDS011;62035;52.094;5.112;2023-02-25T01:44:07;17.83;;;2.53;;
62030;SDS011;62035;52.094;5.112;2023-02-25T01:46:40;13.05;;;2.55;;
62030;SDS011;62035;52.094;5.112;2023-02-25T01:49:10;25.85;;;3.17;;
62030;SDS011;62035;52.094;5.112;2023-02-25T01:51:45;20.50;;;2.95;;
62030;SDS011;62035;52.094;5.112;2023-02-25T01:54:17;18.83;;;2.80;;
62030;SDS011;62035;52.094;5.112;2023-02-25T01:56:47;18.77;;;2.58;;
62030;SDS011;62035;52.094;5.112;2023-02-25T01:59:22;17.52;;;2.92;;
62030;SDS011;62035;52.094;5.112;2023-02-25T02:01:54;21.70;;;3.70;;
62030;SDS011;62035;52.094;5.112;2023-02-25T02:04:22;17.67;;;2.85;;
62030;SDS011;62035;52.094;5.112;2023-02-25T02:06:52;15.20;;;3.03;;
62030;SDS011;62035;52.094;5.112;2023-02-25T02:09:21;10.85;;;1.83;;
62030;SDS011;62035;52.094;5.112;2023-02-25T02:11:54;15.40;;;2.70;;
62030;SDS011;62035;52.094;5.112;2023-02-25T02:14:25;14.13;;;2.47;;
62030;SDS011;62035;52.094;5.112;2023-02-25T02:20:02;20.58;;;2.30;;
62030;SDS011;62035;52.094;5.112;2023-02-25T02:22:47;13.85;;;2.50;;
62030;SDS011;62035;52.094;5.112;2023-02-25T02:29:14;14.25;;;2.30;;
62030;SDS011;62035;52.094;5.112;2023-02-25T02:32:21;18.20;;;3.00;;
62030;SDS011;62035;52.094;5.112;2023-02-25T02:35:03;13.30;;;2.00;;
62030;SDS011;62035;52.094;5.112;2023-02-25T02:40:28;10.60;;;2.25;;
62030;SDS011;62035;52.094;5.112;2023-02-25T02:43:13;16.23;;;2.22;;
62030;SDS011;62035;52.094;5.112;2023-02-25T02:46:01;12.50;;;2.40;;
62030;SDS011;62035;52.094;5.112;2023-02-25T02:48:40;17.45;;;2.83;;
62030;SDS011;62035;52.094;5.112;2023-02-25T02:51:15;22.05;;;2.65;;
62030;SDS011;62035;52.094;5.112;2023-02-25T02:53:50;19.20;;;2.97;;
62030;SDS011;62035;52.094;5.112;2023-02-25T02:56:23;20.42;;;2.88;;
62030;SDS011;62035;52.094;5.112;2023-02-25T02:58:56;19.98;;;2.75;;
62030;SDS011;62035;52.094;5.112;2023-02-25T03:01:31;14.43;;;2.50;;
62030;SDS011;62035;52.094;5.112;2023-02-25T03:04:07;16.40;;;2.88;;
62030;SDS011;62035;52.094;5.112;2023-02-25T03:06:41;20.85;;;3.50;;
62030;SDS011;62035;52.094;5.112;2023-02-25T03:09:15;21.23;;;2.95;;
62030;SDS011;62035;52.094;5.112;2023-02-25T03:11:47;22.45;;;3.28;;
62030;SDS011;62035;52.094;5.112;2023-02-25T03:14:14;17.95;;;2.80;;
62030;SDS011;62035;52.094;5.112;2023-02-25T03:16:43;19.30;;;2.67;;
62030;SDS011;62035;52.094;5.112;2023-02-25T03:19:22;16.48;;;3.13;;
62030;SDS011;62035;52.094;5.112;2023-02-25T03:21:59;17.05;;;2.58;;
62030;SDS011;62035;52.094;5.112;2023-02-25T03:24:34;22.05;;;2.58;;
62030;SDS011;62035;52.094;5.112;2023-02-25T03:27:21;22.88;;;3.72;;
62030;SDS011;62035;52.094;5.112;2023-02-25T03:29:53;26.17;;;3.17;;
62030;SDS011;62035;52.094;5.112;2023-02-25T03:32:30;24.27;;;3.47;;
62030;SDS011;62035;52.094;5.112;2023-02-25T03:35:04;22.10;;;3.05;;
62030;SDS011;62035;52.094;5.112;2023-02-25T03:37:37;15.65;;;2.40;;
62030;SDS011;62035;52.094;5.112;2023-02-25T03:40:10;22.13;;;2.83;;
62030;SDS011;62035;52.094;5.112;2023-02-25T03:42:43;13.43;;;2.90;;
62030;SDS011;62035;52.094;5.112;2023-02-25T03:45:18;15.85;;;2.65;;
62030;SDS011;62035;52.094;5.112;2023-02-25T03:47:47;19.50;;;3.40;;
62030;SDS011;62035;52.094;5.112;2023-02-25T03:50:19;18.85;;;3.03;;
62030;SDS011;62035;52.094;5.112;2023-02-25T03:52:50;24.75;;;2.45;;
62030;SDS011;62035;52.094;5.112;2023-02-25T03:55:18;19.58;;;2.83;;
62030;SDS011;62035;52.094;5.112;2023-02-25T03:57:47;16.67;;;3.03;;
62030;SDS011;62035;52.094;5.112;2023-02-25T04:00:18;20.67;;;2.90;;
62030;SDS011;62035;52.094;5.112;2023-02-25T04:02:49;16.38;;;1.92;;
62030;SDS011;62035;52.094;5.112;2023-02-25T04:05:19;19.08;;;3.30;;
62030;SDS011;62035;52.094;5.112;2023-02-25T04:07:49;25.05;;;3.00;;
62030;SDS011;62035;52.094;5.112;2023-02-25T04:10:17;19.33;;;3.03;;
62030;SDS011;62035;52.094;5.112;2023-02-25T04:12:45;18.90;;;2.75;;
62030;SDS011;62035;52.094;5.112;2023-02-25T04:15:14;17.77;;;2.80;;
62030;SDS011;62035;52.094;5.112;2023-02-25T04:17:42;19.55;;;2.75;;
62030;SDS011;62035;52.094;5.112;2023-02-25T04:20:11;24.48;;;2.65;;
62030;SDS011;62035;52.094;5.112;2023-02-25T04:22:42;21.80;;;2.80;;
62030;SDS011;62035;52.094;5.112;2023-02-25T04:25:10;27.55;;;3.40;;
62030;SDS011;62035;52.094;5.112;2023-02-25T04:27:38;16.05;;;2.33;;
62030;SDS011;62035;52.094;5.112;2023-02-25T04:30:06;25.40;;;2.85;;
62030;SDS011;62035;52.094;5.112;2023-02-25T04:32:35;15.45;;;3.00;;
62030;SDS011;62035;52.094;5.112;2023-02-25T04:35:03;20.15;;;2.70;;
62030;SDS011;62035;52.094;5.112;2023-02-25T04:37:36;22.13;;;2.80;;
62030;SDS011;62035;52.094;5.112;2023-02-25T04:40:06;15.32;;;2.60;;
62030;SDS011;62035;52.094;5.112;2023-02-25T04:42:39;20.05;;;2.47;;
62030;SDS011;62035;52.094;5.112;2023-02-25T04:45:08;13.20;;;2.53;;
62030;SDS011;62035;52.094;5.112;2023-02-25T04:47:37;21.00;;;2.38;;
62030;SDS011;62035;52.094;5.112;2023-02-25T04:50:07;19.60;;;2.88;;
62030;SDS011;62035;52.094;5.112;2023-02-25T04:52:37;19.73;;;2.58;;
62030;SDS011;62035;52.094;5.112;2023-02-25T04:55:06;13.23;;;1.95;;
62030;SDS011;62035;52.094;5.112;2023-02-25T04:57:35;16.55;;;2.35;;
62030;SDS011;62035;52.094;5.112;2023-02-25T05:00:08;16.60;;;2.92;;
62030;SDS011;62035;52.094;5.112;2023-02-25T05:02:43;15.93;;;2.20;;
62030;SDS011;62035;52.094;5.112;2023-02-25T05:05:12;15.95;;;2.47;;
62030;SDS011;62035;52.094;5.112;2023-02-25T05:07:41;17.27;;;2.58;;
62030;SDS011;62035;52.094;5.112;2023-02-25T05:10:11;22.08;;;2.78;;
62030;SDS011;62035;52.094;5.112;2023-02-25T05:12:40;12.25;;;2.40;;
62030;SDS011;62035;52.094;5.112;2023-02-25T05:15:08;20.77;;;2.42;;
62030;SDS011;62035;52.094;5.112;2023-02-25T05:17:37;16.00;;;2.22;;
62030;SDS011;62035;52.094;5.112;2023-02-25T05:20:05;16.55;;;2.40;;
62030;SDS011;62035;52.094;5.112;2023-02-25T05:22:37;17.55;;;2.17;;
62030;SDS011;62035;52.094;5.112;2023-02-25T05:25:06;14.10;;;2.30;;
62030;SDS011;62035;52.094;5.112;2023-02-25T05:27:37;18.67;;;2.83;;
62030;SDS011;62035;52.094;5.112;2023-02-25T05:30:05;15.18;;;2.42;;
62030;SDS011;62035;52.094;5.112;2023-02-25T05:32:34;14.10;;;1.95;;
62030;SDS011;62035;52.094;5.112;2023-02-25T05:35:03;13.30;;;2.40;;
62030;SDS011;62035;52.094;5.112;2023-02-25T05:37:33;13.80;;;3.03;;
62030;SDS011;62035;52.094;5.112;2023-02-25T05:40:01;15.95;;;2.33;;
62030;SDS011;62035;52.094;5.112;2023-02-25T05:42:30;15.25;;;1.83;;
62030;SDS011;62035;52.094;5.112;2023-02-25T05:44:58;17.58;;;3.13;;
62030;SDS011;62035;52.094;5.112;2023-02-25T05:47:26;17.10;;;2.10;;
62030;SDS011;62035;52.094;5.112;2023-02-25T05:49:54;21.30;;;2.85;;
62030;SDS011;62035;52.094;5.112;2023-02-25T05:52:21;11.85;;;2.22;;
62030;SDS011;62035;52.094;5.112;2023-02-25T05:54:49;14.63;;;2.72;;
62030;SDS011;62035;52.094;5.112;2023-02-25T05:57:16;18.27;;;2.20;;
62030;SDS011;62035;52.094;5.112;2023-02-25T05:59:44;16.20;;;2.63;;
62030;SDS011;62035;52.094;5.112;2023-02-25T06:02:13;17.48;;;3.17;;
62030;SDS011;62035;52.094;5.112;2023-02-25T06:04:41;23.92;;;2.65;;
62030;SDS011;62035;52.094;5.112;2023-02-25T06:07:08;15.43;;;2.63;;
62030;SDS011;62035;52.094;5.112;2023-02-25T06:09:36;13.18;;;2.75;;
62030;SDS011;62035;52.094;5.112;2023-02-25T06:12:05;21.85;;;2.20;;
62030;SDS011;62035;52.094;5.112;2023-02-25T06:14:33;28.80;;;3.22;;
62030;SDS011;62035;52.094;5.112;2023-02-25T06:17:01;16.73;;;2.13;;
62030;SDS011;62035;52.094;5.112;2023-02-25T06:19:31;18.77;;;2.70;;
62030;SDS011;62035;52.094;5.112;2023-02-25T06:21:58;13.18;;;2.28;;
62030;SDS011;62035;52.094;5.112;2023-02-25T06:24:26;17.35;;;2.75;;
62030;SDS011;62035;52.094;5.112;2023-02-25T06:26:54;17.20;;;2.15;;
62030;SDS011;62035;52.094;5.112;2023-02-25T06:29:21;19.90;;;2.53;;
62030;SDS011;62035;52.094;5.112;2023-02-25T06:31:49;14.43;;;2.65;;
62030;SDS011;62035;52.094;5.112;2023-02-25T06:34:16;26.77;;;2.65;;
62030;SDS011;62035;52.094;5.112;2023-02-25T06:36:46;13.77;;;2.08;;
62030;SDS011;62035;52.094;5.112;2023-02-25T06:39:13;12.50;;;2.33;;
62030;SDS011;62035;52.094;5.112;2023-02-25T06:41:41;11.32;;;2.13;;
62030;SDS011;62035;52.094;5.112;2023-02-25T06:44:10;15.38;;;2.75;;
62030;SDS011;62035;52.094;5.112;2023-02-25T06:46:37;23.13;;;2.72;;
62030;SDS011;62035;52.094;5.112;2023-02-25T06:49:05;20.50;;;2.33;;
62030;SDS011;62035;52.094;5.112;2023-02-25T06:51:32;17.05;;;2.72;;
62030;SDS011;62035;52.094;5.112;2023-02-25T06:54:02;13.02;;;2.47;;
62030;SDS011;62035;52.094;5.112;2023-02-25T06:56:30;21.50;;;2.92;;
62030;SDS011;62035;52.094;5.112;2023-02-25T06:58:58;19.75;;;3.83;;
62030;SDS011;62035;52.094;5.112;2023-02-25T07:01:25;17.00;;;2.78;;
62030;SDS011;62035;52.094;5.112;2023-02-25T07:03:53;25.85;;;3.90;;
62030;SDS011;62035;52.094;5.112;2023-02-25T07:06:20;19.75;;;2.95;;
62030;SDS011;62035;52.094;5.112;2023-02-25T07:08:48;12.23;;;3.08;;
62030;SDS011;62035;52.094;5.112;2023-02-25T07:11:26;13.50;;;2.63;;
62030;SDS011;62035;52.094;5.112;2023-02-25T07:13:59;19.05;;;2.53;;
62030;SDS011;62035;52.094;5.112;2023-02-25T07:16:27;22.35;;;2.40;;
62030;SDS011;62035;52.094;5.112;2023-02-25T07:18:55;20.92;;;3.20;;
62030;SDS011;62035;52.094;5.112;2023-02-25T07:21:27;20.50;;;3.10;;
62030;SDS011;62035;52.094;5.112;2023-02-25T07:23:56;14.73;;;2.55;;
62030;SDS011;62035;52.094;5.112;2023-02-25T07:26:25;16.60;;;2.13;;
62030;SDS011;62035;52.094;5.112;2023-02-25T07:28:54;23.98;;;3.78;;
62030;SDS011;62035;52.094;5.112;2023-02-25T07:31:23;19.52;;;2.40;;
62030;SDS011;62035;52.094;5.112;2023-02-25T07:33:53;11.35;;;2.35;;
62030;SDS011;62035;52.094;5.112;2023-02-25T07:36:21;24.40;;;3.15;;
62030;SDS011;62035;52.094;5.112;2023-02-25T07:38:52;16.67;;;2.58;;
62030;SDS011;62035;52.094;5.112;2023-02-25T07:41:19;18.17;;;2.75;;
62030;SDS011;62035;52.094;5.112;2023-02-25T07:43:49;19.88;;;2.85;;
62030;SDS011;62035;52.094;5.112;2023-02-25T07:46:17;20.92;;;3.60;;
62030;SDS011;62035;52.094;5.112;2023-02-25T07:48:45;12.80;;;2.20;;
62030;SDS011;62035;52.094;5.112;2023-02-25T07:51:13;13.82;;;2.30;;
62030;SDS011;62035;52.094;5.112;2023-02-25T07:53:43;21.88;;;2.80;;
62030;SDS011;62035;52.094;5.112;2023-02-25T07:56:12;12.75;;;2.58;;
62030;SDS011;62035;52.094;5.112;2023-02-25T07:58:40;12.60;;;2.55;;
62030;SDS011;62035;52.094;5.112;2023-02-25T08:01:10;17.08;;;2.30;;
62030;SDS011;62035;52.094;5.112;2023-02-25T08:03:45;13.70;;;2.92;;
62030;SDS011;62035;52.094;5.112;2023-02-25T08:06:14;14.27;;;2.60;;
62030;SDS011;62035;52.094;5.112;2023-02-25T08:08:41;16.40;;;2.45;;
62030;SDS011;62035;52.094;5.112;2023-02-25T08:11:10;14.75;;;2.67;;
62030;SDS011;62035;52.094;5.112;2023-02-25T08:13:39;35.15;;;4.05;;
62030;SDS011;62035;52.094;5.112;2023-02-25T08:16:08;19.55;;;2.78;;
62030;SDS011;62035;52.094;5.112;2023-02-25T08:18:39;13.25;;;2.47;;
62030;SDS011;62035;52.094;5.112;2023-02-25T08:21:08;13.88;;;2.08;;
62030;SDS011;62035;52.094;5.112;2023-02-25T08:23:40;13.88;;;2.70;;
62030;SDS011;62035;52.094;5.112;2023-02-25T08:26:08;18.38;;;2.95;;
62030;SDS011;62035;52.094;5.112;2023-02-25T08:28:36;13.75;;;2.47;;
62030;SDS011;62035;52.094;5.112;2023-02-25T08:31:05;12.55;;;1.88;;
62030;SDS011;62035;52.094;5.112;2023-02-25T08:33:38;19.80;;;4.00;;
62030;SDS011;62035;52.094;5.112;2023-02-25T08:38:37;17.25;;;2.67;;
62030;SDS011;62035;52.094;5.112;2023-02-25T08:41:05;16.05;;;2.13;;
62030;SDS011;62035;52.094;5.112;2023-02-25T08:43:34;15.20;;;2.42;;
62030;SDS011;62035;52.094;5.112;2023-02-25T08:46:03;13.52;;;3.63;;
62030;SDS011;62035;52.094;5.112;2023-02-25T08:48:31;11.85;;;2.13;;
62030;SDS011;62035;52.094;5.112;2023-02-25T08:51:02;10.02;;;1.65;;
62030;SDS011;62035;52.094;5.112;2023-02-25T08:53:33;8.27;;;1.55;;
62030;SDS011;62035;52.094;5.112;2023-02-25T08:56:02;10.63;;;1.52;;
62030;SDS011;62035;52.094;5.112;2023-02-25T08:58:30;7.70;;;1.52;;
62030;SDS011;62035;52.094;5.112;2023-02-25T09:00:58;8.23;;;1.40;;
62030;SDS011;62035;52.094;5.112;2023-02-25T09:03:26;11.50;;;1.73;;
62030;SDS011;62035;52.094;5.112;2023-02-25T09:05:54;6.88;;;1.42;;
62030;SDS011;62035;52.094;5.112;2023-02-25T09:08:24;6.43;;;1.60;;
62030;SDS011;62035;52.094;5.112;2023-02-25T09:10:53;9.38;;;1.80;;
62030;SDS011;62035;52.094;5.112;2023-02-25T09:13:20;12.40;;;2.03;;
62030;SDS011;62035;52.094;5.112;2023-02-25T09:15:54;9.07;;;2.42;;
62030;SDS011;62035;52.094;5.112;2023-02-25T09:18:22;9.07;;;2.08;;
62030;SDS011;62035;52.094;5.112;2023-02-25T09:20:50;7.68;;;1.65;;
62030;SDS011;62035;52.094;5.112;2023-02-25T09:23:18;9.05;;;1.70;;
62030;SDS011;62035;52.094;5.112;2023-02-25T09:25:47;12.38;;;2.10;;
62030;SDS011;62035;52.094;5.112;2023-02-25T09:28:15;14.30;;;1.88;;
62030;SDS011;62035;52.094;5.112;2023-02-25T09:30:43;6.72;;;1.60;;
62030;SDS011;62035;52.094;5.112;2023-02-25T09:33:12;11.32;;;2.33;;
62030;SDS011;62035;52.094;5.112;2023-02-25T09:35:40;4.80;;;1.52;;
62030;SDS011;62035;52.094;5.112;2023-02-25T09:38:07;9.43;;;2.13;;
62030;SDS011;62035;52.094;5.112;2023-02-25T09:40:36;9.30;;;1.60;;
62030;SDS011;62035;52.094;5.112;2023-02-25T09:43:09;8.25;;;1.80;;
62030;SDS011;62035;52.094;5.112;2023-02-25T09:45:48;9.20;;;1.92;;
62030;SDS011;62035;52.094;5.112;2023-02-25T09:48:19;10.65;;;1.63;;
62030;SDS011;62035;52.094;5.112;2023-02-25T09:50:56;10.55;;;1.88;;
62030;SDS011;62035;52.094;5.112;2023-02-25T09:53:35;7.10;;;1.30;;
62030;SDS011;62035;52.094;5.112;2023-02-25T09:56:08;8.02;;;1.58;;
62030;SDS011;62035;52.094;5.112;2023-02-25T09:58:45;3.80;;;1.00;;
62030;SDS011;62035;52.094;5.112;2023-02-25T10:01:23;6.10;;;1.48;;
62030;SDS011;62035;52.094;5.112;2023-02-25T10:04:01;3.63;;;0.98;;
62030;SDS011;62035;52.094;5.112;2023-02-25T10:06:40;9.75;;;1.23;;
62030;SDS011;62035;52.094;5.112;2023-02-25T10:09:14;4.18;;;1.17;;
62030;SDS011;62035;52.094;5.112;2023-02-25T10:11:57;4.63;;;1.27;;
62030;SDS011;62035;52.094;5.112;2023-02-25T10:14:42;3.63;;;1.30;;
62030;SDS011;62035;52.094;5.112;2023-02-25T10:17:29;5.28;;;1.52;;
62030;SDS011;62035;52.094;5.112;2023-02-25T10:20:18;8.85;;;1.25;;
62030;SDS011;62035;52.094;5.112;2023-02-25T10:23:12;8.52;;;1.80;;
62030;SDS011;62035;52.094;5.112;2023-02-25T10:26:01;6.20;;;1.30;;
62030;SDS011;62035;52.094;5.112;2023-02-25T10:28:38;9.48;;;1.50;;
62030;SDS011;62035;52.094;5.112;2023-02-25T10:31:11;5.25;;;1.05;;
62030;SDS011;62035;52.094;5.112;2023-02-25T10:33:43;9.63;;;1.65;;
62030;SDS011;62035;52.094;5.112;2023-02-25T10:36:15;5.40;;;1.27;;
62030;SDS011;62035;52.094;5.112;2023-02-25T10:38:46;8.30;;;1.30;;
62030;SDS011;62035;52.094;5.112;2023-02-25T10:41:18;4.80;;;1.30;;
62030;SDS011;62035;52.094;5.112;2023-02-25T10:43:49;9.15;;;1.27;;
62030;SDS011;62035;52.094;5.112;2023-02-25T10:46:20;7.93;;;1.52;;
62030;SDS011;62035;52.094;5.112;2023-02-25T10:48:59;9.75;;;1.20;;
62030;SDS011;62035;52.094;5.112;2023-02-25T10:51:41;9.25;;;1.75;;
62030;SDS011;62035;52.094;5.112;2023-02-25T10:54:23;6.40;;;2.25;;
62030;SDS011;62035;52.094;5.112;2023-02-25T10:56:51;10.32;;;1.77;;
62030;SDS011;62035;52.094;5.112;2023-02-25T10:59:26;11.13;;;1.70;;
62030;SDS011;62035;52.094;5.112;2023-02-25T11:01:59;7.78;;;1.65;;
62030;SDS011;62035;52.094;5.112;2023-02-25T11:04:28;9.75;;;1.60;;
62030;SDS011;62035;52.094;5.112;2023-02-25T11:07:02;14.18;;;2.95;;
62030;SDS011;62035;52.094;5.112;2023-02-25T11:10:14;7.03;;;1.75;;
62030;SDS011;62035;52.094;5.112;2023-02-25T11:12:45;6.53;;;1.20;;
62030;SDS011;62035;52.094;5.112;2023-02-25T11:15:26;7.88;;;1.40;;
62030;SDS011;62035;52.094;5.112;2023-02-25T11:18:03;5.25;;;1.17;;
62030;SDS011;62035;52.094;5.112;2023-02-25T11:20:47;7.53;;;1.20;;
62030;SDS011;62035;52.094;5.112;2023-02-25T11:23:19;4.95;;;1.08;;
62030;SDS011;62035;52.094;5.112;2023-02-25T11:25:54;5.50;;;1.40;;
62030;SDS011;62035;52.094;5.112;2023-02-25T11:28:24;3.28;;;1.15;;
62030;SDS011;62035;52.094;5.112;2023-02-25T11:31:03;4.35;;;1.10;;
62030;SDS011;62035;52.094;5.112;2023-02-25T11:33:38;7.13;;;1.20;;
62030;SDS011;62035;52.094;5.112;2023-02-25T11:36:11;6.38;;;1.40;;
62030;SDS011;62035;52.094;5.112;2023-02-25T11:38:45;5.70;;;1.20;;
62030;SDS011;62035;52.094;5.112;2023-02-25T11:41:14;7.22;;;1.55;;
62030;SDS011;62035;52.094;5.112;2023-02-25T11:43:47;3.70;;;1.00;;
62030;SDS011;62035;52.094;5.112;2023-02-25T11:46:16;11.82;;;1.90;;
62030;SDS011;62035;52.094;5.112;2023-02-25T11:48:51;4.53;;;1.20;;
62030;SDS011;62035;52.094;5.112;2023-02-25T11:51:27;5.68;;;1.80;;
62030;SDS011;62035;52.094;5.112;2023-02-25T11:54:02;8.43;;;1.20;;
62030;SDS011;62035;52.094;5.112;2023-02-25T11:56:50;6.18;;;1.40;;
62030;SDS011;62035;52.094;5.112;2023-02-25T11:59:27;4.47;;;1.40;;
62030;SDS011;62035;52.094;5.112;2023-02-25T12:02:18;7.47;;;1.75;;
62030;SDS011;62035;52.094;5.112;2023-02-25T12:05:18;7.25;;;1.50;;
62030;SDS011;62035;52.094;5.112;2023-02-25T12:08:10;5.53;;;1.95;;
62030;SDS011;62035;52.094;5.112;2023-02-25T12:17:59;10.30;;;1.65;;
62030;SDS011;62035;52.094;5.112;2023-02-25T12:21:18;7.53;;;1.38;;
62030;SDS011;62035;52.094;5.112;2023-02-25T12:24:34;7.60;;;1.55;;
62030;SDS011;62035;52.094;5.112;2023-02-25T12:27:37;5.72;;;1.10;;
62030;SDS011;62035;52.094;5.112;2023-02-25T12:30:34;8.30;;;1.23;;
62030;SDS011;62035;52.094;5.112;2023-02-25T12:34:00;7.07;;;1.40;;
62030;SDS011;62035;52.094;5.112;2023-02-25T12:36:55;7.05;;;1.52;;
62030;SDS011;62035;52.094;5.112;2023-02-25T12:39:46;4.25;;;1.67;;
62030;SDS011;62035;52.094;5.112;2023-02-25T12:42:35;5.57;;;1.80;;
62030;SDS011;62035;52.094;5.112;2023-02-25T12:45:32;5.55;;;1.30;;
62030;SDS011;62035;52.094;5.112;2023-02-25T12:51:39;6.40;;;1.40;;
62030;SDS011;62035;52.094;5.112;2023-02-25T12:54:49;11.30;;;1.67;;
62030;SDS011;62035;52.094;5.112;2023-02-25T12:57:45;5.93;;;1.30;;
62030;SDS011;62035;52.094;5.112;2023-02-25T13:00:37;8.07;;;1.60;;
62030;SDS011;62035;52.094;5.112;2023-02-25T13:03:31;9.30;;;1.65;;
62030;SDS011;62035;52.094;5.112;2023-02-25T13:06:32;7.05;;;1.40;;
62030;SDS011;62035;52.094;5.112;2023-02-25T13:09:27;12.95;;;2.10;;
62030;SDS011;62035;52.094;5.112;2023-02-25T13:12:19;8.30;;;1.50;;
62030;SDS011;62035;52.094;5.112;2023-02-25T13:15:07;6.15;;;1.60;;
62030;SDS011;62035;52.094;5.112;2023-02-25T13:18:03;8.50;;;1.70;;
62030;SDS011;62035;52.094;5.112;2023-02-25T13:21:00;1.80;;;1.08;;
62030;SDS011;62035;52.094;5.112;2023-02-25T13:23:56;7.28;;;1.60;;
62030;SDS011;62035;52.094;5.112;2023-02-25T13:26:44;8.93;;;1.65;;
62030;SDS011;62035;52.094;5.112;2023-02-25T13:29:51;5.45;;;1.52;;
62030;SDS011;62035;52.094;5.112;2023-02-25T13:33:09;5.25;;;1.30;;
62030;SDS011;62035;52.094;5.112;2023-02-25T13:36:00;7.65;;;1.30;;
62030;SDS011;62035;52.094;5.112;2023-02-25T13:39:01;6.70;;;1.65;;
62030;SDS011;62035;52.094;5.112;2023-02-25T13:41:56;5.95;;;1.50;;
62030;SDS011;62035;52.094;5.112;2023-02-25T13:51:40;5.85;;;1.48;;
62030;SDS011;62035;52.094;5.112;2023-02-25T13:54:41;7.68;;;1.63;;
62030;SDS011;62035;52.094;5.112;2023-02-25T13:57:42;4.25;;;1.23;;
62030;SDS011;62035;52.094;5.112;2023-02-25T14:00:33;7.88;;;1.70;;
62030;SDS011;62035;52.094;5.112;2023-02-25T14:03:38;6.40;;;1.83;;
62030;SDS011;62035;52.094;5.112;2023-02-25T14:09:54;7.60;;;1.75;;
62030;SDS011;62035;52.094;5.112;2023-02-25T14:12:43;9.85;;;1.70;;
62030;SDS011;62035;52.094;5.112;2023-02-25T14:15:34;7.55;;;1.48;;
62030;SDS011;62035;52.094;5.112;2023-02-25T14:21:40;8.10;;;1.70;;
62030;SDS011;62035;52.094;5.112;2023-02-25T14:24:25;8.60;;;2.55;;
62030;SDS011;62035;52.094;5.112;2023-02-25T14:27:03;6.10;;;1.45;;
62030;SDS011;62035;52.094;5.112;2023-02-25T14:30:00;9.82;;;2.05;;
62030;SDS011;62035;52.094;5.112;2023-02-25T14:32:48;6.07;;;1.45;;
62030;SDS011;62035;52.094;5.112;2023-02-25T14:35:34;8.18;;;2.00;;
62030;SDS011;62035;52.094;5.112;2023-02-25T14:38:20;6.30;;;1.52;;
62030;SDS011;62035;52.094;5.112;2023-02-25T14:41:07;9.93;;;1.80;;
62030;SDS011;62035;52.094;5.112;2023-02-25T14:44:00;11.25;;;1.55;;
62030;SDS011;62035;52.094;5.112;2023-02-25T14:46:39;8.00;;;2.22;;
62030;SDS011;62035;52.094;5.112;2023-02-25T14:49:19;6.43;;;1.70;;
62030;SDS011;62035;52.094;5.112;2023-02-25T14:52:04;10.55;;;1.80;;
62030;SDS011;62035;52.094;5.112;2023-02-25T14:55:13;4.80;;;1.60;;
62030;SDS011;62035;52.094;5.112;2023-02-25T15:01:16;7.72;;;2.08;;
62030;SDS011;62035;52.094;5.112;2023-02-25T15:04:16;6.70;;;1.85;;
62030;SDS011;62035;52.094;5.112;2023-02-25T15:07:09;9.20;;;2.35;;
62030;SDS011;62035;52.094;5.112;2023-02-25T15:10:03;11.65;;;2.15;;
62030;SDS011;62035;52.094;5.112;2023-02-25T15:16:14;8.35;;;2.28;;
62030;SDS011;62035;52.094;5.112;2023-02-25T15:19:28;7.38;;;1.60;;
62030;SDS011;62035;52.094;5.112;2023-02-25T15:22:22;6.78;;;2.10;;
62030;SDS011;62035;52.094;5.112;2023-02-25T15:24:52;4.75;;;1.65;;
62030;SDS011;62035;52.094;5.112;2023-02-25T15:27:46;4.57;;;1.30;;
62030;SDS011;62035;52.094;5.112;2023-02-25T15:30:16;9.30;;;2.17;;
62030;SDS011;62035;52.094;5.112;2023-02-25T15:32:52;8.68;;;1.50;;
62030;SDS011;62035;52.094;5.112;2023-02-25T15:35:55;7.50;;;2.05;;
62030;SDS011;62035;52.094;5.112;2023-02-25T15:44:31;4.53;;;1.85;;
62030;SDS011;62035;52.094;5.112;2023-02-25T15:49:56;8.10;;;1.45;;
62030;SDS011;62035;52.094;5.112;2023-02-25T15:55:36;6.30;;;1.60;;
62030;SDS011;62035;52.094;5.112;2023-02-25T16:01:21;6.72;;;1.60;;
62030;SDS011;62035;52.094;5.112;2023-02-25T16:07:17;11.65;;;1.50;;
62030;SDS011;62035;52.094;5.112;2023-02-25T16:09:50;8.13;;;1.63;;
62030;SDS011;62035;52.094;5.112;2023-02-25T16:12:23;6.28;;;1.50;;
62030;SDS011;62035;52.094;5.112;2023-02-25T16:14:53;7.47;;;1.55;;
62030;SDS011;62035;52.094;5.112;2023-02-25T16:17:26;10.02;;;1.77;;
62030;SDS011;62035;52.094;5.112;2023-02-25T16:20:08;7.55;;;2.17;;
62030;SDS011;62035;52.094;5.112;2023-02-25T16:22:49;7.18;;;1.70;;
62030;SDS011;62035;52.094;5.112;2023-02-25T16:25:26;11.65;;;1.85;;
62030;SDS011;62035;52.094;5.112;2023-02-25T16:28:07;9.02;;;1.55;;
62030;SDS011;62035;52.094;5.112;2023-02-25T16:30:49;7.18;;;1.70;;
62030;SDS011;62035;52.094;5.112;2023-02-25T16:33:29;12.15;;;2.25;;